createdAt,value
2023-05-02T00:00:39.908Z,100152.50
2023-05-02T00:03:44.026Z,100153.63
2023-05-02T00:06:47.039Z,100151.72
2023-05-02T00:09:49.828Z,100140.53
2023-05-02T00:12:52.612Z,100132.28
2023-05-02T00:15:55.413Z,100139.09
2023-05-02T00:18:58.124Z,100132.66
2023-05-02T00:22:00.869Z,100129.50
2023-05-02T00:25:03.800Z,100125.38
2023-05-02T00:28:06.605Z,100125.97
2023-05-02T00:31:13.537Z,100126.22
2023-05-02T00:34:16.449Z,100126.59
2023-05-02T00:37:19.461Z,100124.00
2023-05-02T00:40:22.432Z,100124.59
2023-05-02T00:43:26.214Z,100117.63
2023-05-02T00:46:29.895Z,100120.22
2023-05-02T00:49:32.765Z,100123.28
2023-05-02T00:52:35.858Z,100115.66
2023-05-02T00:55:39.022Z,100120.47
2023-05-02T00:58:42.502Z,100118.16
2023-05-02T01:02:09.389Z,100120.94
2023-05-02T01:05:21.184Z,100121.94
2023-05-02T01:08:40.198Z,100113.94
2023-05-02T01:11:57.160Z,100116.00
2023-05-02T01:15:06.104Z,100104.38
2023-05-02T01:18:14.852Z,100112.88
2023-05-02T01:21:17.847Z,100116.72
2023-05-02T01:24:27.886Z,100111.88
2023-05-02T01:27:56.117Z,100115.72
2023-05-02T01:31:00.463Z,100110.97
2023-05-02T01:34:05.562Z,100105.88
2023-05-02T01:37:11.484Z,100104.38
2023-05-02T01:40:20.885Z,100100.78
2023-05-02T01:43:24.766Z,100100.56
2023-05-02T01:46:33.145Z,100101.56
2023-05-02T01:49:37.108Z,100101.16
2023-05-02T01:52:41.068Z,100098.31
2023-05-02T01:55:46.002Z,100099.38
2023-05-02T01:58:51.755Z,100101.81
2023-05-02T02:01:56.087Z,100098.94
2023-05-02T02:05:00.328Z,100092.47
2023-05-02T02:08:03.208Z,100092.22
2023-05-02T02:11:12.112Z,100088.00
2023-05-02T02:14:21.608Z,100099.91
2023-05-02T02:17:36.920Z,100086.09
2023-05-02T02:20:44.087Z,100088.53
2023-05-02T02:23:51.322Z,100084.16
2023-05-02T02:26:54.253Z,100085.13
2023-05-02T02:29:57.081Z,100080.03
2023-05-02T02:33:00.044Z,100085.22
2023-05-02T02:36:31.296Z,100079.03
2023-05-02T02:39:52.652Z,100077.03
2023-05-02T02:43:07.133Z,100074.63
2023-05-02T02:46:28.241Z,100081.44
2023-05-02T02:50:16.132Z,100074.91
2023-05-02T02:53:25.642Z,100082.59
2023-05-02T02:56:36.521Z,100077.84
2023-05-02T02:59:47.446Z,100086.09
2023-05-02T03:02:53.458Z,100081.69
2023-05-02T03:05:57.382Z,100084.97
2023-05-02T03:09:01.807Z,100085.91
2023-05-02T03:12:06.233Z,100081.00
2023-05-02T03:15:38.218Z,100086.38
2023-05-02T03:18:41.588Z,100087.53
2023-05-02T03:21:44.682Z,100086.72
2023-05-02T03:24:52.874Z,100094.22
2023-05-02T03:27:57.872Z,100101.59
2023-05-02T03:31:00.896Z,100104.31
2023-05-02T03:34:04.962Z,100094.53
2023-05-02T03:37:07.847Z,100100.63
2023-05-02T03:40:10.935Z,100102.28
2023-05-02T03:43:15.622Z,100103.69
2023-05-02T03:46:18.559Z,100103.22
2023-05-02T03:49:22.009Z,100100.97
2023-05-02T03:52:28.800Z,100099.03
2023-05-02T03:55:32.392Z,100101.44
2023-05-02T03:58:39.058Z,100104.56
2023-05-02T04:01:41.862Z,100111.69
2023-05-02T04:04:46.549Z,100110.84
2023-05-02T04:07:51.862Z,100115.47
2023-05-02T04:10:54.706Z,100108.41
2023-05-02T04:13:57.606Z,100112.09
2023-05-02T04:17:00.543Z,100125.28
2023-05-02T04:20:11.818Z,100120.47
2023-05-02T04:23:19.007Z,100123.47
2023-05-02T04:26:24.421Z,100129.50
2023-05-02T04:29:34.400Z,100128.72
2023-05-02T04:32:38.203Z,100134.72
2023-05-02T04:35:42.030Z,100125.75
2023-05-02T04:38:47.846Z,100141.53
2023-05-02T04:41:52.810Z,100136.28
2023-05-02T04:44:57.977Z,100143.53
2023-05-02T04:48:00.873Z,100139.06
2023-05-02T04:51:03.815Z,100144.28
2023-05-02T04:54:07.212Z,100144.28
2023-05-02T04:57:10.416Z,100146.13
2023-05-02T05:00:18.541Z,100141.31
2023-05-02T05:03:22.158Z,100155.00
2023-05-02T05:06:55.047Z,100155.75
2023-05-02T05:09:58.913Z,100151.69
2023-05-02T05:13:05.628Z,100153.16
2023-05-02T05:16:09.658Z,100157.41
2023-05-02T05:19:12.817Z,100145.38
2023-05-02T05:22:15.717Z,100147.22
2023-05-02T05:25:18.966Z,100146.03
2023-05-02T05:28:23.687Z,100137.78
2023-05-02T05:31:26.871Z,100145.44
2023-05-02T05:34:33.207Z,100152.63
2023-05-02T05:37:39.559Z,100153.47
2023-05-02T05:40:44.696Z,100146.03
2023-05-02T05:43:48.450Z,100152.63
2023-05-02T05:46:51.830Z,100149.00
2023-05-02T05:49:57.096Z,100150.97
2023-05-02T05:53:04.235Z,100159.25
2023-05-02T05:56:11.411Z,100154.25
2023-05-02T05:59:16.603Z,100146.97
2023-05-02T06:02:19.996Z,100156.22
2023-05-02T06:05:22.944Z,100147.34
2023-05-02T06:08:27.359Z,100154.16
2023-05-02T06:11:31.261Z,100150.09
2023-05-02T06:14:35.030Z,100146.84
2023-05-02T06:17:37.969Z,100156.13
2023-05-02T06:20:40.940Z,100154.69
2023-05-02T06:23:43.726Z,100161.88
2023-05-02T06:26:46.624Z,100151.97
2023-05-02T06:29:53.021Z,100167.25
2023-05-02T06:32:55.812Z,100167.13
2023-05-02T06:36:00.800Z,100168.03
2023-05-02T06:39:04.926Z,100160.28
2023-05-02T06:42:07.724Z,100166.44
2023-05-02T06:45:11.651Z,100166.63
2023-05-02T06:48:15.525Z,100169.75
2023-05-02T06:51:19.598Z,100177.50
2023-05-02T06:54:22.834Z,100180.78
2023-05-02T06:57:25.655Z,100162.94
2023-05-02T07:00:28.496Z,100176.25
2023-05-02T07:03:31.308Z,100172.44
2023-05-02T07:06:34.693Z,100172.00
2023-05-02T07:09:37.467Z,100172.28
2023-05-02T07:12:40.382Z,100164.03
2023-05-02T07:15:43.966Z,100162.53
2023-05-02T07:18:47.139Z,100169.09
2023-05-02T07:21:50.541Z,100163.81
2023-05-02T07:25:02.152Z,100176.19
2023-05-02T07:28:05.553Z,100161.63
2023-05-02T07:31:08.354Z,100172.28
2023-05-02T07:34:11.320Z,100176.41
2023-05-02T07:37:14.328Z,100180.84
2023-05-02T07:40:17.216Z,100185.53
2023-05-02T07:43:21.245Z,100185.72
2023-05-02T07:46:24.509Z,100187.19
2023-05-02T07:49:27.394Z,100180.69
2023-05-02T07:52:30.815Z,100189.28
2023-05-02T07:55:33.767Z,100193.09
2023-05-02T07:58:39.428Z,100187.19
2023-05-02T08:01:42.203Z,100179.78
2023-05-02T08:04:45.241Z,100179.47
2023-05-02T08:07:48.163Z,100185.19
2023-05-02T08:10:51.567Z,100180.47
2023-05-02T08:13:55.068Z,100190.00
2023-05-02T08:16:58.914Z,100186.56
2023-05-02T08:20:02.051Z,100191.22
2023-05-02T08:23:05.358Z,100189.75
2023-05-02T08:26:08.423Z,100187.44
2023-05-02T08:29:13.018Z,100186.66
2023-05-02T08:32:16.250Z,100188.50
2023-05-02T08:35:19.110Z,100189.47
2023-05-02T08:38:21.908Z,100192.81
2023-05-02T08:41:25.443Z,100188.88
2023-05-02T08:44:28.366Z,100195.06
2023-05-02T08:47:32.621Z,100191.84
2023-05-02T08:50:44.703Z,100197.47
2023-05-02T08:53:49.458Z,100193.63
2023-05-02T08:56:54.079Z,100193.59
2023-05-02T08:59:57.204Z,100182.28
2023-05-02T09:03:09.235Z,100190.03
2023-05-02T09:06:16.039Z,100185.88
2023-05-02T09:09:19.298Z,100182.00
2023-05-02T09:12:27.001Z,100187.81
2023-05-02T09:15:29.955Z,100183.66
2023-05-02T09:18:46.029Z,100176.63
2023-05-02T09:21:49.149Z,100193.75
2023-05-02T09:24:55.798Z,100181.22
2023-05-02T09:28:01.579Z,100193.53
2023-05-02T09:31:11.990Z,100195.59
2023-05-02T09:34:17.797Z,100199.03
2023-05-02T09:37:36.281Z,100194.88
2023-05-02T09:40:39.187Z,100207.06
2023-05-02T09:43:42.224Z,100209.50
2023-05-02T09:46:53.063Z,100212.59
2023-05-02T09:49:55.777Z,100211.19
2023-05-02T09:53:09.933Z,100213.28
2023-05-02T09:56:12.765Z,100208.22
2023-05-02T09:59:19.319Z,100206.97
2023-05-02T10:02:22.961Z,100204.09
2023-05-02T10:05:27.799Z,100215.00
2023-05-02T10:08:33.863Z,100218.41
2023-05-02T10:11:40.416Z,100215.38
2023-05-02T10:14:56.706Z,100213.19
2023-05-02T10:18:01.446Z,100221.06
2023-05-02T10:21:18.879Z,100214.09
2023-05-02T10:24:21.962Z,100219.91
2023-05-02T10:27:24.904Z,100218.06
2023-05-02T10:30:28.222Z,100207.13
2023-05-02T10:33:34.326Z,100217.78
2023-05-02T10:36:37.111Z,100220.06
2023-05-02T10:39:40.282Z,100212.53
2023-05-02T10:42:46.732Z,100211.81
2023-05-02T10:45:49.716Z,100216.31
2023-05-02T10:49:18.545Z,100215.31
2023-05-02T10:52:32.947Z,100215.22
2023-05-02T10:55:35.747Z,100219.66
2023-05-02T10:58:38.856Z,100219.03
2023-05-02T11:01:42.999Z,100224.00
2023-05-02T11:05:04.526Z,100230.22
2023-05-02T11:08:17.982Z,100221.47
2023-05-02T11:11:41.578Z,100230.06
2023-05-02T11:14:47.542Z,100226.00
2023-05-02T11:18:01.870Z,100227.56
2023-05-02T11:21:30.149Z,100222.75
2023-05-02T11:24:44.835Z,100225.94
2023-05-02T11:27:49.403Z,100230.22
2023-05-02T11:30:52.174Z,100227.25
2023-05-02T11:34:04.711Z,100230.81
2023-05-02T11:37:15.568Z,100233.22
2023-05-02T11:40:18.640Z,100235.53
2023-05-02T11:43:22.088Z,100234.72
2023-05-02T11:46:25.013Z,100234.38
2023-05-02T11:49:28.012Z,100235.84
2023-05-02T11:52:31.802Z,100235.81
2023-05-02T11:55:35.623Z,100238.22
2023-05-02T11:58:38.469Z,100237.66
2023-05-02T12:01:49.474Z,100239.75
2023-05-02T12:04:52.181Z,100238.19
2023-05-02T12:07:54.922Z,100231.19
2023-05-02T12:10:58.082Z,100241.78
2023-05-02T12:14:02.335Z,100237.06
2023-05-02T12:17:06.943Z,100234.38
2023-05-02T12:20:11.706Z,100236.13
2023-05-02T12:23:14.668Z,100234.91
2023-05-02T12:26:18.541Z,100236.22
2023-05-02T12:29:21.495Z,100236.91
2023-05-02T12:32:30.081Z,100231.56
2023-05-02T12:35:34.898Z,100230.50
2023-05-02T12:38:37.740Z,100241.41
2023-05-02T12:41:46.041Z,100246.31
2023-05-02T12:44:52.409Z,100246.69
2023-05-02T12:47:56.034Z,100244.13
2023-05-02T12:50:58.823Z,100247.25
2023-05-02T12:54:01.832Z,100243.47
2023-05-02T12:57:04.728Z,100242.25
2023-05-02T13:00:08.601Z,100248.97
2023-05-02T13:03:11.509Z,100242.97
2023-05-02T13:06:14.367Z,100246.16
2023-05-02T13:09:18.401Z,100239.53
2023-05-02T13:12:21.560Z,100240.97
2023-05-02T13:15:24.461Z,100236.28
2023-05-02T13:18:30.340Z,100239.31
2023-05-02T13:21:33.116Z,100239.63
2023-05-02T13:24:36.351Z,100239.47
2023-05-02T13:27:40.176Z,100248.13
2023-05-02T13:30:43.027Z,100244.84
2023-05-02T13:33:46.081Z,100239.19
2023-05-02T13:36:48.855Z,100248.06
2023-05-02T13:39:51.724Z,100249.19
2023-05-02T13:42:54.570Z,100254.16
2023-05-02T13:45:57.714Z,100244.28
2023-05-02T13:49:00.841Z,100251.75
2023-05-02T13:52:04.469Z,100244.84
2023-05-02T13:55:08.271Z,100242.00
2023-05-02T13:58:11.024Z,100248.44
2023-05-02T14:01:13.881Z,100239.97
2023-05-02T14:04:16.654Z,100248.03
2023-05-02T14:07:19.409Z,100245.97
2023-05-02T14:10:22.300Z,100237.03
2023-05-02T14:13:25.578Z,100241.44
2023-05-02T14:16:28.594Z,100234.25
2023-05-02T14:19:31.560Z,100233.09
2023-05-02T14:22:34.502Z,100239.28
2023-05-02T14:25:37.396Z,100230.16
2023-05-02T14:28:41.029Z,100232.72
2023-05-02T14:31:49.081Z,100227.13
2023-05-02T14:34:52.071Z,100230.97
2023-05-02T14:37:54.828Z,100231.50
2023-05-02T14:40:57.673Z,100237.53
2023-05-02T14:44:00.549Z,100229.44
2023-05-02T14:47:03.474Z,100226.09
2023-05-02T14:50:08.113Z,100234.84
2023-05-02T14:53:12.099Z,100229.66
2023-05-02T14:56:17.250Z,100241.78
2023-05-02T14:59:21.212Z,100226.47
2023-05-02T15:02:24.065Z,100224.94
2023-05-02T15:05:27.035Z,100228.72
2023-05-02T15:08:30.284Z,100222.34
2023-05-02T15:11:33.234Z,100227.69
2023-05-02T15:14:35.993Z,100222.13
2023-05-02T15:17:39.399Z,100224.84
2023-05-02T15:20:42.693Z,100219.69
2023-05-02T15:23:46.280Z,100228.84
2023-05-02T15:26:49.383Z,100199.38
2023-05-02T15:29:53.188Z,100227.13
2023-05-02T15:32:56.203Z,100224.59
2023-05-02T15:35:59.038Z,100221.16
2023-05-02T15:39:01.861Z,100224.25
2023-05-02T15:42:06.332Z,100220.94
2023-05-02T15:45:13.531Z,100211.19
2023-05-02T15:48:16.369Z,100200.44
2023-05-02T15:51:19.216Z,100213.34
2023-05-02T15:54:22.463Z,100204.50
2023-05-02T15:57:26.416Z,100195.31
2023-05-02T16:00:29.436Z,100187.63
2023-05-02T16:03:32.792Z,100183.03
2023-05-02T16:06:36.478Z,100182.28
2023-05-02T16:09:41.957Z,100182.00
2023-05-02T16:12:44.757Z,100190.53
2023-05-02T16:15:48.476Z,100186.97
2023-05-02T16:18:51.496Z,100186.78
2023-05-02T16:21:54.417Z,100166.22
2023-05-02T16:24:57.183Z,100184.84
2023-05-02T16:28:00.195Z,100189.22
2023-05-02T16:31:07.939Z,100186.19
2023-05-02T16:34:11.367Z,100190.34
2023-05-02T16:37:14.261Z,100188.81
2023-05-02T16:40:17.358Z,100195.59
2023-05-02T16:43:20.349Z,100196.53
2023-05-02T16:46:23.376Z,100191.69
2023-05-02T16:49:26.231Z,100198.38
2023-05-02T16:52:29.263Z,100203.06
2023-05-02T16:55:32.131Z,100194.94
2023-05-02T16:58:34.982Z,100205.53
2023-05-02T17:01:38.356Z,100201.38
2023-05-02T17:04:42.071Z,100205.28
2023-05-02T17:07:45.192Z,100217.94
2023-05-02T17:10:49.739Z,100213.78
2023-05-02T17:13:52.680Z,100213.44
2023-05-02T17:16:55.624Z,100220.94
2023-05-02T17:19:58.527Z,100230.47
2023-05-02T17:23:02.356Z,100240.69
2023-05-02T17:26:13.967Z,100237.34
2023-05-02T17:29:16.747Z,100237.88
2023-05-02T17:32:19.515Z,100246.81
2023-05-02T17:35:22.344Z,100249.47
2023-05-02T17:38:26.816Z,100247.09
2023-05-02T17:41:30.525Z,100240.63
2023-05-02T17:44:36.173Z,100249.75
2023-05-02T17:47:39.149Z,100235.34
2023-05-02T17:50:42.249Z,100251.66
2023-05-02T17:53:45.050Z,100240.59
2023-05-02T17:56:47.976Z,100257.56
2023-05-02T17:59:53.193Z,100259.56
2023-05-02T18:02:56.736Z,100263.59
2023-05-02T18:06:00.187Z,100270.06
2023-05-02T18:09:03.058Z,100265.88
2023-05-02T18:12:13.584Z,100275.13
2023-05-02T18:15:16.471Z,100274.75
2023-05-02T18:18:19.351Z,100282.00
2023-05-02T18:21:22.958Z,100290.47
2023-05-02T18:24:25.937Z,100287.25
2023-05-02T18:27:28.821Z,100297.34
2023-05-02T18:30:31.758Z,100296.75
2023-05-02T18:33:34.739Z,100314.09
2023-05-02T18:36:37.703Z,100316.50
2023-05-02T18:39:40.740Z,100313.06
2023-05-02T18:42:43.858Z,100330.19
2023-05-02T18:45:46.647Z,100323.75
2023-05-02T18:48:50.070Z,100333.41
2023-05-02T18:51:54.515Z,100328.78
2023-05-02T18:54:57.462Z,100333.22
2023-05-02T18:58:00.224Z,100339.28
2023-05-02T19:01:12.216Z,100344.31
2023-05-02T19:04:15.424Z,100350.38
2023-05-02T19:07:18.402Z,100347.75
2023-05-02T19:10:21.286Z,100353.38
2023-05-02T19:13:27.145Z,100351.97
2023-05-02T19:16:31.753Z,100352.97
2023-05-02T19:19:34.842Z,100361.47
2023-05-02T19:22:38.383Z,100350.97
2023-05-02T19:25:42.010Z,100361.06
2023-05-02T19:28:45.641Z,100365.59
2023-05-02T19:31:48.779Z,100377.09
2023-05-02T19:34:51.629Z,100374.88
2023-05-02T19:37:54.520Z,100383.94
2023-05-02T19:40:57.358Z,100383.19
2023-05-02T19:44:01.204Z,100395.66
2023-05-02T19:47:04.361Z,100394.22
2023-05-02T19:50:07.976Z,100397.22
2023-05-02T19:53:10.835Z,100389.16
2023-05-02T19:56:14.298Z,100391.00
2023-05-02T19:59:17.478Z,100397.63
2023-05-02T20:02:20.623Z,100395.84
2023-05-02T20:05:23.772Z,100400.88
2023-05-02T20:08:28.214Z,100403.09
2023-05-02T20:11:32.850Z,100393.78
2023-05-02T20:14:35.782Z,100403.63
2023-05-02T20:17:39.188Z,100404.00
2023-05-02T20:20:42.121Z,100412.03
2023-05-02T20:23:45.284Z,100408.47
2023-05-02T20:26:49.267Z,100417.72
2023-05-02T20:29:52.206Z,100419.69
2023-05-02T20:32:55.784Z,100421.81
2023-05-02T20:35:59.005Z,100422.47
2023-05-02T20:39:04.773Z,100420.25
2023-05-02T20:42:07.711Z,100419.38
2023-05-02T20:45:14.068Z,100421.78
2023-05-02T20:48:18.347Z,100419.56
2023-05-02T20:51:21.650Z,100405.59
2023-05-02T20:54:24.712Z,100424.31
2023-05-02T20:57:27.551Z,100414.88
2023-05-02T21:00:30.370Z,100416.22
2023-05-02T21:03:36.787Z,100414.00
2023-05-02T21:06:39.583Z,100415.00
2023-05-02T21:09:42.488Z,100412.22
2023-05-02T21:12:45.384Z,100417.06
2023-05-02T21:15:48.214Z,100420.84
2023-05-02T21:18:52.840Z,100428.44
2023-05-02T21:21:55.921Z,100425.38
2023-05-02T21:24:58.739Z,100420.72
2023-05-02T21:28:01.639Z,100415.69
2023-05-02T21:31:04.757Z,100421.56
2023-05-02T21:34:07.622Z,100423.72
2023-05-02T21:37:10.475Z,100422.72
2023-05-02T21:40:13.695Z,100425.31
2023-05-02T21:43:16.807Z,100428.56
2023-05-02T21:46:19.795Z,100420.06
2023-05-02T21:49:23.107Z,100425.72
2023-05-02T21:52:25.929Z,100430.09
2023-05-02T21:55:28.720Z,100433.31
2023-05-02T21:58:31.487Z,100433.31
2023-05-02T22:01:34.423Z,100434.13
2023-05-02T22:04:37.249Z,100443.16
2023-05-02T22:07:40.082Z,100432.56
2023-05-02T22:10:44.031Z,100433.06
2023-05-02T22:13:46.832Z,100436.88
2023-05-02T22:16:51.105Z,100434.31
2023-05-02T22:19:53.966Z,100441.91
2023-05-02T22:22:56.780Z,100442.50
2023-05-02T22:25:59.652Z,100442.38
2023-05-02T22:29:03.020Z,100452.69
2023-05-02T22:32:06.089Z,100463.91
2023-05-02T22:35:09.256Z,100455.13
2023-05-02T22:38:15.525Z,100455.00
2023-05-02T22:41:18.273Z,100455.72
2023-05-02T22:44:21.249Z,100461.72
2023-05-02T22:47:24.109Z,100451.72
2023-05-02T22:50:28.067Z,100436.16
2023-05-02T22:53:31.481Z,100444.63
2023-05-02T22:56:34.656Z,100433.94
2023-05-02T22:59:37.570Z,100437.91
2023-05-02T23:02:40.409Z,100434.97
2023-05-02T23:05:43.239Z,100435.34
2023-05-02T23:08:46.110Z,100430.50
2023-05-02T23:11:48.804Z,100444.38
2023-05-02T23:14:51.879Z,100435.91
2023-05-02T23:17:54.583Z,100448.91
2023-05-02T23:20:57.676Z,100444.63
2023-05-02T23:24:00.525Z,100445.84
2023-05-02T23:27:03.834Z,100449.69
2023-05-02T23:30:07.996Z,100446.47
2023-05-02T23:33:11.236Z,100444.69
2023-05-02T23:36:14.514Z,100444.69
2023-05-02T23:39:17.456Z,100432.81
2023-05-02T23:42:20.292Z,100438.09
2023-05-02T23:45:23.145Z,100436.75
2023-05-02T23:48:26.016Z,100435.22
2023-05-02T23:51:28.777Z,100435.41
2023-05-02T23:54:33.656Z,100442.34
2023-05-02T23:57:37.256Z,100448.63
